sensor_id;sensor_type;location;lat;lon;timestamp;temperature;humidity
64198;SHT31;50512;53.666;9.700;2023-07-28T00:01:52;16.38;99.99
64198;SHT31;50512;53.666;9.700;2023-07-28T00:04:18;16.41;99.99
64198;SHT31;50512;53.666;9.700;2023-07-28T00:06:44;16.44;99.99
64198;SHT31;50512;53.666;9.700;2023-07-28T00:09:11;16.39;99.99
64198;SHT31;50512;53.666;9.700;2023-07-28T00:11:37;16.32;99.99
64198;SHT31;50512;53.666;9.700;2023-07-28T00:14:04;16.26;99.99
64198;SHT31;50512;53.666;9.700;2023-07-28T00:16:30;16.07;99.99
64198;SHT31;50512;53.666;9.700;2023-07-28T00:18:58;16.11;99.99
64198;SHT31;50512;53.666;9.700;2023-07-28T00:21:25;16.11;99.99
64198;SHT31;50512;53.666;9.700;2023-07-28T00:23:52;16.17;99.99
64198;SHT31;50512;53.666;9.700;2023-07-28T00:26:18;16.22;99.99
64198;SHT31;50512;53.666;9.700;2023-07-28T00:28:45;16.24;99.99
64198;SHT31;50512;53.666;9.700;2023-07-28T00:31:12;16.26;99.99
64198;SHT31;50512;53.666;9.700;2023-07-28T00:33:38;16.01;99.99
64198;SHT31;50512;53.666;9.700;2023-07-28T00:36:06;16.00;99.99
64198;SHT31;50512;53.666;9.700;2023-07-28T00:38:32;16.04;99.99
64198;SHT31;50512;53.666;9.700;2023-07-28T00:40:59;16.07;99.99
64198;SHT31;50512;53.666;9.700;2023-07-28T00:43:25;16.08;99.99
64198;SHT31;50512;53.666;9.700;2023-07-28T00:45:53;16.10;99.99
64198;SHT31;50512;53.666;9.700;2023-07-28T00:48:19;16.13;99.99
64198;SHT31;50512;53.666;9.700;2023-07-28T00:50:48;16.08;99.99
64198;SHT31;50512;53.666;9.700;2023-07-28T00:53:18;15.80;99.99
64198;SHT31;50512;53.666;9.700;2023-07-28T00:55:46;15.79;99.99
64198;SHT31;50512;53.666;9.700;2023-07-28T00:58:12;15.89;99.99
64198;SHT31;50512;53.666;9.700;2023-07-28T01:00:39;15.96;99.99
64198;SHT31;50512;53.666;9.700;2023-07-28T01:03:05;15.96;99.99
64198;SHT31;50512;53.666;9.700;2023-07-28T01:05:35;15.98;99.99
64198;SHT31;50512;53.666;9.700;2023-07-28T01:08:09;16.05;99.99
64198;SHT31;50512;53.666;9.700;2023-07-28T01:10:39;16.05;99.99
64198;SHT31;50512;53.666;9.700;2023-07-28T01:13:06;16.08;99.99
64198;SHT31;50512;53.666;9.700;2023-07-28T01:15:32;16.17;99.99
64198;SHT31;50512;53.666;9.700;2023-07-28T01:17:58;16.20;99.99
64198;SHT31;50512;53.666;9.700;2023-07-28T01:20:29;16.22;99.99
64198;SHT31;50512;53.666;9.700;2023-07-28T01:23:05;16.28;99.99
64198;SHT31;50512;53.666;9.700;2023-07-28T01:25:47;16.28;99.99
64198;SHT31;50512;53.666;9.700;2023-07-28T01:28:17;16.32;99.99
64198;SHT31;50512;53.666;9.700;2023-07-28T01:30:43;16.31;99.99
64198;SHT31;50512;53.666;9.700;2023-07-28T01:33:10;16.31;99.99
64198;SHT31;50512;53.666;9.700;2023-07-28T01:35:37;16.29;99.99
64198;SHT31;50512;53.666;9.700;2023-07-28T01:38:04;16.31;99.99
64198;SHT31;50512;53.666;9.700;2023-07-28T01:40:30;16.29;99.99
64198;SHT31;50512;53.666;9.700;2023-07-28T01:42:57;16.26;99.99
64198;SHT31;50512;53.666;9.700;2023-07-28T01:45:25;16.25;99.99
64198;SHT31;50512;53.666;9.700;2023-07-28T01:47:51;16.22;99.99
64198;SHT31;50512;53.666;9.700;2023-07-28T01:50:18;16.20;99.99
64198;SHT31;50512;53.666;9.700;2023-07-28T01:52:44;16.21;99.99
64198;SHT31;50512;53.666;9.700;2023-07-28T01:55:10;16.13;99.99
64198;SHT31;50512;53.666;9.700;2023-07-28T01:57:38;16.03;99.99
64198;SHT31;50512;53.666;9.700;2023-07-28T02:00:06;16.04;99.99
64198;SHT31;50512;53.666;9.700;2023-07-28T02:02:34;16.00;99.99
64198;SHT31;50512;53.666;9.700;2023-07-28T02:05:00;16.01;99.99
64198;SHT31;50512;53.666;9.700;2023-07-28T02:07:27;16.00;99.99
64198;SHT31;50512;53.666;9.700;2023-07-28T02:09:53;15.97;99.99
64198;SHT31;50512;53.666;9.700;2023-07-28T02:12:20;15.87;99.99
64198;SHT31;50512;53.666;9.700;2023-07-28T02:14:46;15.83;99.99
64198;SHT31;50512;53.666;9.700;2023-07-28T02:17:13;15.77;99.99
64198;SHT31;50512;53.666;9.700;2023-07-28T02:19:40;15.83;99.99
64198;SHT31;50512;53.666;9.700;2023-07-28T02:22:07;15.86;99.99
64198;SHT31;50512;53.666;9.700;2023-07-28T02:24:33;15.89;99.99
64198;SHT31;50512;53.666;9.700;2023-07-28T02:27:00;15.86;99.99
64198;SHT31;50512;53.666;9.700;2023-07-28T02:29:26;15.80;99.99
64198;SHT31;50512;53.666;9.700;2023-07-28T02:31:53;15.80;99.99
64198;SHT31;50512;53.666;9.700;2023-07-28T02:34:19;15.73;99.99
64198;SHT31;50512;53.666;9.700;2023-07-28T02:36:47;15.74;99.99
64198;SHT31;50512;53.666;9.700;2023-07-28T02:39:13;15.70;99.99
64198;SHT31;50512;53.666;9.700;2023-07-28T02:41:40;15.65;99.99
64198;SHT31;50512;53.666;9.700;2023-07-28T02:44:06;15.63;99.99
64198;SHT31;50512;53.666;9.700;2023-07-28T02:46:33;15.63;99.99
64198;SHT31;50512;53.666;9.700;2023-07-28T02:48:59;15.58;99.99
64198;SHT31;50512;53.666;9.700;2023-07-28T02:51:27;15.52;99.99
64198;SHT31;50512;53.666;9.700;2023-07-28T02:53:55;15.60;99.99
64198;SHT31;50512;53.666;9.700;2023-07-28T02:56:22;15.55;99.99
64198;SHT31;50512;53.666;9.700;2023-07-28T02:58:48;15.59;99.99
64198;SHT31;50512;53.666;9.700;2023-07-28T03:01:15;15.60;99.99
64198;SHT31;50512;53.666;9.700;2023-07-28T03:03:42;15.59;99.99
64198;SHT31;50512;53.666;9.700;2023-07-28T03:06:09;15.58;99.99
64198;SHT31;50512;53.666;9.700;2023-07-28T03:08:35;15.52;99.99
64198;SHT31;50512;53.666;9.700;2023-07-28T03:11:03;15.62;99.99
64198;SHT31;50512;53.666;9.700;2023-07-28T03:13:29;15.66;99.99
64198;SHT31;50512;53.666;9.700;2023-07-28T03:15:56;15.70;99.99
64198;SHT31;50512;53.666;9.700;2023-07-28T03:18:22;15.67;99.99
64198;SHT31;50512;53.666;9.700;2023-07-28T03:20:49;15.62;99.99
64198;SHT31;50512;53.666;9.700;2023-07-28T03:23:16;15.67;99.99
64198;SHT31;50512;53.666;9.700;2023-07-28T03:25:43;15.77;99.99
64198;SHT31;50512;53.666;9.700;2023-07-28T03:28:11;15.76;99.99
64198;SHT31;50512;53.666;9.700;2023-07-28T03:30:37;15.71;99.99
64198;SHT31;50512;53.666;9.700;2023-07-28T03:33:03;15.73;99.99
64198;SHT31;50512;53.666;9.700;2023-07-28T03:35:30;15.71;99.99
64198;SHT31;50512;53.666;9.700;2023-07-28T03:37:56;15.79;99.99
64198;SHT31;50512;53.666;9.700;2023-07-28T03:40:23;15.77;99.99
64198;SHT31;50512;53.666;9.700;2023-07-28T03:42:49;15.67;99.99
64198;SHT31;50512;53.666;9.700;2023-07-28T03:45:17;15.59;99.99
64198;SHT31;50512;53.666;9.700;2023-07-28T03:47:44;15.62;99.99
64198;SHT31;50512;53.666;9.700;2023-07-28T03:50:10;15.59;99.99
64198;SHT31;50512;53.666;9.700;2023-07-28T03:52:37;15.59;99.99
64198;SHT31;50512;53.666;9.700;2023-07-28T03:55:04;15.63;99.99
64198;SHT31;50512;53.666;9.700;2023-07-28T03:57:30;15.67;99.99
64198;SHT31;50512;53.666;9.700;2023-07-28T03:59:57;15.60;99.99
64198;SHT31;50512;53.666;9.700;2023-07-28T04:02:24;15.58;99.99
64198;SHT31;50512;53.666;9.700;2023-07-28T04:04:53;15.60;99.99
64198;SHT31;50512;53.666;9.700;2023-07-28T04:07:19;15.65;99.99
64198;SHT31;50512;53.666;9.700;2023-07-28T04:09:46;15.65;99.99
64198;SHT31;50512;53.666;9.700;2023-07-28T04:12:13;15.62;99.99
64198;SHT31;50512;53.666;9.700;2023-07-28T04:14:39;15.63;99.99
64198;SHT31;50512;53.666;9.700;2023-07-28T04:17:06;15.56;99.99
64198;SHT31;50512;53.666;9.700;2023-07-28T04:19:34;15.63;99.99
64198;SHT31;50512;53.666;9.700;2023-07-28T04:22:01;15.67;99.99
64198;SHT31;50512;53.666;9.700;2023-07-28T04:24:28;15.71;99.99
64198;SHT31;50512;53.666;9.700;2023-07-28T04:26:54;15.69;99.99
64198;SHT31;50512;53.666;9.700;2023-07-28T04:29:20;15.73;99.99
64198;SHT31;50512;53.666;9.700;2023-07-28T04:31:47;15.79;99.99
64198;SHT31;50512;53.666;9.700;2023-07-28T04:34:13;15.77;99.99
64198;SHT31;50512;53.666;9.700;2023-07-28T04:36:41;15.77;99.99
64198;SHT31;50512;53.666;9.700;2023-07-28T04:39:08;15.82;99.99
64198;SHT31;50512;53.666;9.700;2023-07-28T04:41:34;15.91;99.99
64198;SHT31;50512;53.666;9.700;2023-07-28T04:44:01;16.00;99.99
64198;SHT31;50512;53.666;9.700;2023-07-28T04:46:27;16.03;99.99
64198;SHT31;50512;53.666;9.700;2023-07-28T04:48:54;16.08;99.99
64198;SHT31;50512;53.666;9.700;2023-07-28T04:51:20;16.18;99.99
64198;SHT31;50512;53.666;9.700;2023-07-28T04:53:48;16.20;99.99
64198;SHT31;50512;53.666;9.700;2023-07-28T04:56:14;16.20;99.99
64198;SHT31;50512;53.666;9.700;2023-07-28T04:58:41;16.10;99.99
64198;SHT31;50512;53.666;9.700;2023-07-28T05:01:07;15.96;99.99
64198;SHT31;50512;53.666;9.700;2023-07-28T05:03:34;16.01;99.99
64198;SHT31;50512;53.666;9.700;2023-07-28T05:06:03;16.00;99.99
64198;SHT31;50512;53.666;9.700;2023-07-28T05:08:29;16.00;99.99
64198;SHT31;50512;53.666;9.700;2023-07-28T05:10:57;16.08;99.99
64198;SHT31;50512;53.666;9.700;2023-07-28T05:13:24;16.20;99.99
64198;SHT31;50512;53.666;9.700;2023-07-28T05:15:50;16.29;99.99
64198;SHT31;50512;53.666;9.700;2023-07-28T05:18:16;16.41;99.99
64198;SHT31;50512;53.666;9.700;2023-07-28T05:20:43;16.35;99.90
64198;SHT31;50512;53.666;9.700;2023-07-28T05:23:09;16.33;99.93
64198;SHT31;50512;53.666;9.700;2023-07-28T05:25:36;16.48;99.93
64198;SHT31;50512;53.666;9.700;2023-07-28T05:28:04;16.65;99.87
64198;SHT31;50512;53.666;9.700;2023-07-28T05:30:30;16.72;99.78
64198;SHT31;50512;53.666;9.700;2023-07-28T05:32:57;16.84;99.58
64198;SHT31;50512;53.666;9.700;2023-07-28T05:35:23;16.94;99.24
64198;SHT31;50512;53.666;9.700;2023-07-28T05:37:49;17.00;99.11
64198;SHT31;50512;53.666;9.700;2023-07-28T05:40:16;16.99;98.74
64198;SHT31;50512;53.666;9.700;2023-07-28T05:42:42;16.93;98.46
64198;SHT31;50512;53.666;9.700;2023-07-28T05:45:11;16.77;98.93
64198;SHT31;50512;53.666;9.700;2023-07-28T05:47:37;16.79;99.47
64198;SHT31;50512;53.666;9.700;2023-07-28T05:50:05;16.66;98.69
64198;SHT31;50512;53.666;9.700;2023-07-28T05:52:31;16.70;99.45
64198;SHT31;50512;53.666;9.700;2023-07-28T05:54:58;16.70;99.76
64198;SHT31;50512;53.666;9.700;2023-07-28T05:57:24;16.77;99.60
64198;SHT31;50512;53.666;9.700;2023-07-28T05:59:51;16.88;99.28
64198;SHT31;50512;53.666;9.700;2023-07-28T06:02:19;16.79;98.50
64198;SHT31;50512;53.666;9.700;2023-07-28T06:04:45;16.76;98.87
64198;SHT31;50512;53.666;9.700;2023-07-28T06:07:12;16.81;98.93
64198;SHT31;50512;53.666;9.700;2023-07-28T06:09:38;16.88;98.82
64198;SHT31;50512;53.666;9.700;2023-07-28T06:12:05;16.96;98.67
64198;SHT31;50512;53.666;9.700;2023-07-28T06:14:32;16.99;98.77
64198;SHT31;50512;53.666;9.700;2023-07-28T06:16:58;17.08;98.52
64198;SHT31;50512;53.666;9.700;2023-07-28T06:19:26;17.07;97.62
64198;SHT31;50512;53.666;9.700;2023-07-28T06:21:52;17.07;97.85
64198;SHT31;50512;53.666;9.700;2023-07-28T06:24:19;17.11;98.02
64198;SHT31;50512;53.666;9.700;2023-07-28T06:26:46;16.90;98.05
64198;SHT31;50512;53.666;9.700;2023-07-28T06:29:12;16.86;98.07
64198;SHT31;50512;53.666;9.700;2023-07-28T06:31:39;16.84;97.87
64198;SHT31;50512;53.666;9.700;2023-07-28T06:34:06;16.90;97.87
64198;SHT31;50512;53.666;9.700;2023-07-28T06:36:34;17.02;98.39
64198;SHT31;50512;53.666;9.700;2023-07-28T06:39:00;17.15;97.95
64198;SHT31;50512;53.666;9.700;2023-07-28T06:41:27;17.39;97.79
64198;SHT31;50512;53.666;9.700;2023-07-28T06:43:53;17.41;96.30
64198;SHT31;50512;53.666;9.700;2023-07-28T06:46:19;17.31;97.11
64198;SHT31;50512;53.666;9.700;2023-07-28T06:48:47;17.58;97.66
64198;SHT31;50512;53.666;9.700;2023-07-28T06:51:13;17.62;95.76
64198;SHT31;50512;53.666;9.700;2023-07-28T06:53:41;17.70;96.19
64198;SHT31;50512;53.666;9.700;2023-07-28T06:56:08;17.73;96.95
64198;SHT31;50512;53.666;9.700;2023-07-28T06:58:34;17.45;95.89
64198;SHT31;50512;53.666;9.700;2023-07-28T07:01:01;17.52;96.12
64198;SHT31;50512;53.666;9.700;2023-07-28T07:03:27;17.08;96.90
64198;SHT31;50512;53.666;9.700;2023-07-28T07:05:53;17.28;96.15
64198;SHT31;50512;53.666;9.700;2023-07-28T07:08:20;17.24;95.53
64198;SHT31;50512;53.666;9.700;2023-07-28T07:10:52;17.28;94.59
64198;SHT31;50512;53.666;9.700;2023-07-28T07:13:19;17.41;97.11
64198;SHT31;50512;53.666;9.700;2023-07-28T07:15:46;17.63;96.76
64198;SHT31;50512;53.666;9.700;2023-07-28T07:18:12;17.72;95.68
64198;SHT31;50512;53.666;9.700;2023-07-28T07:20:38;17.70;94.52
64198;SHT31;50512;53.666;9.700;2023-07-28T07:23:05;17.79;96.16
64198;SHT31;50512;53.666;9.700;2023-07-28T07:25:32;17.75;94.44
64198;SHT31;50512;53.666;9.700;2023-07-28T07:28:00;17.77;94.06
64198;SHT31;50512;53.666;9.700;2023-07-28T07:30:26;17.90;95.24
64198;SHT31;50512;53.666;9.700;2023-07-28T07:32:53;17.94;95.27
64198;SHT31;50512;53.666;9.700;2023-07-28T07:35:19;18.01;95.40
64198;SHT31;50512;53.666;9.700;2023-07-28T07:37:45;18.07;93.56
64198;SHT31;50512;53.666;9.700;2023-07-28T07:40:12;18.23;93.59
64198;SHT31;50512;53.666;9.700;2023-07-28T07:42:40;18.01;93.68
64198;SHT31;50512;53.666;9.700;2023-07-28T07:45:10;17.59;95.59
64198;SHT31;50512;53.666;9.700;2023-07-28T07:47:37;17.80;96.80
64198;SHT31;50512;53.666;9.700;2023-07-28T07:50:05;17.98;96.17
64198;SHT31;50512;53.666;9.700;2023-07-28T07:52:32;18.21;95.32
64198;SHT31;50512;53.666;9.700;2023-07-28T07:54:58;17.66;94.26
64198;SHT31;50512;53.666;9.700;2023-07-28T07:57:24;17.30;95.43
64198;SHT31;50512;53.666;9.700;2023-07-28T07:59:51;17.51;95.36
64198;SHT31;50512;53.666;9.700;2023-07-28T08:02:19;17.65;95.63
64198;SHT31;50512;53.666;9.700;2023-07-28T08:04:46;17.79;94.97
64198;SHT31;50512;53.666;9.700;2023-07-28T08:07:12;18.11;95.73
64198;SHT31;50512;53.666;9.700;2023-07-28T08:09:41;18.35;94.05
64198;SHT31;50512;53.666;9.700;2023-07-28T08:12:08;18.58;93.29
64198;SHT31;50512;53.666;9.700;2023-07-28T08:14:34;18.24;92.65
64198;SHT31;50512;53.666;9.700;2023-07-28T08:17:01;18.01;91.97
64198;SHT31;50512;53.666;9.700;2023-07-28T08:19:29;18.15;93.14
64198;SHT31;50512;53.666;9.700;2023-07-28T08:21:55;18.40;94.49
64198;SHT31;50512;53.666;9.700;2023-07-28T08:24:22;18.00;92.09
64198;SHT31;50512;53.666;9.700;2023-07-28T08:26:48;17.51;93.24
64198;SHT31;50512;53.666;9.700;2023-07-28T08:29:15;17.55;93.20
64198;SHT31;50512;53.666;9.700;2023-07-28T08:31:41;17.76;93.38
64198;SHT31;50512;53.666;9.700;2023-07-28T08:34:08;17.90;93.20
64198;SHT31;50512;53.666;9.700;2023-07-28T08:36:36;17.94;93.14
64198;SHT31;50512;53.666;9.700;2023-07-28T08:39:02;17.83;93.99
64198;SHT31;50512;53.666;9.700;2023-07-28T08:41:29;17.96;94.53
64198;SHT31;50512;53.666;9.700;2023-07-28T08:43:55;17.72;92.99
64198;SHT31;50512;53.666;9.700;2023-07-28T08:46:22;17.83;93.69
64198;SHT31;50512;53.666;9.700;2023-07-28T08:48:49;18.01;92.56
64198;SHT31;50512;53.666;9.700;2023-07-28T08:51:15;18.14;91.57
64198;SHT31;50512;53.666;9.700;2023-07-28T08:53:43;18.28;92.89
64198;SHT31;50512;53.666;9.700;2023-07-28T08:56:09;18.53;93.71
64198;SHT31;50512;53.666;9.700;2023-07-28T08:58:36;18.76;92.96
64198;SHT31;50512;53.666;9.700;2023-07-28T09:01:03;18.93;92.97
64198;SHT31;50512;53.666;9.700;2023-07-28T09:03:30;19.02;90.85
64198;SHT31;50512;53.666;9.700;2023-07-28T09:06:00;18.85;90.91
64198;SHT31;50512;53.666;9.700;2023-07-28T09:08:27;18.97;89.10
64198;SHT31;50512;53.666;9.700;2023-07-28T09:10:55;18.92;90.44
64198;SHT31;50512;53.666;9.700;2023-07-28T09:13:21;19.13;90.91
64198;SHT31;50512;53.666;9.700;2023-07-28T09:15:48;19.31;91.23
64198;SHT31;50512;53.666;9.700;2023-07-28T09:18:16;19.39;90.80
64198;SHT31;50512;53.666;9.700;2023-07-28T09:20:43;19.44;88.14
64198;SHT31;50512;53.666;9.700;2023-07-28T09:23:10;19.06;87.95
64198;SHT31;50512;53.666;9.700;2023-07-28T09:25:37;18.72;89.15
64198;SHT31;50512;53.666;9.700;2023-07-28T09:28:05;18.90;91.54
64198;SHT31;50512;53.666;9.700;2023-07-28T09:30:46;19.14;91.41
64198;SHT31;50512;53.666;9.700;2023-07-28T09:33:12;19.17;91.29
64198;SHT31;50512;53.666;9.700;2023-07-28T09:35:47;19.11;91.26
64198;SHT31;50512;53.666;9.700;2023-07-28T09:38:14;19.36;90.98
64198;SHT31;50512;53.666;9.700;2023-07-28T09:40:41;19.36;89.88
64198;SHT31;50512;53.666;9.700;2023-07-28T09:43:09;19.38;89.40
64198;SHT31;50512;53.666;9.700;2023-07-28T09:45:36;19.32;89.51
64198;SHT31;50512;53.666;9.700;2023-07-28T09:48:06;19.45;89.16
64198;SHT31;50512;53.666;9.700;2023-07-28T09:50:35;19.30;89.07
64198;SHT31;50512;53.666;9.700;2023-07-28T09:53:03;19.39;90.04
64198;SHT31;50512;53.666;9.700;2023-07-28T09:55:29;19.35;90.91
64198;SHT31;50512;53.666;9.700;2023-07-28T09:57:58;19.32;90.04
64198;SHT31;50512;53.666;9.700;2023-07-28T10:00:28;19.25;90.28
64198;SHT31;50512;53.666;9.700;2023-07-28T10:02:56;19.31;89.39
64198;SHT31;50512;53.666;9.700;2023-07-28T10:05:23;19.36;89.08
64198;SHT31;50512;53.666;9.700;2023-07-28T10:07:51;19.41;90.54
64198;SHT31;50512;53.666;9.700;2023-07-28T10:10:18;19.42;90.27
64198;SHT31;50512;53.666;9.700;2023-07-28T10:12:46;18.82;89.78
64198;SHT31;50512;53.666;9.700;2023-07-28T10:15:14;19.02;90.11
64198;SHT31;50512;53.666;9.700;2023-07-28T10:17:45;19.28;91.57
64198;SHT31;50512;53.666;9.700;2023-07-28T10:20:29;19.48;90.18
64198;SHT31;50512;53.666;9.700;2023-07-28T10:23:07;19.54;90.70
64198;SHT31;50512;53.666;9.700;2023-07-28T10:25:35;19.39;88.36
64198;SHT31;50512;53.666;9.700;2023-07-28T10:28:02;19.57;89.84
64198;SHT31;50512;53.666;9.700;2023-07-28T10:30:35;19.66;88.02
64198;SHT31;50512;53.666;9.700;2023-07-28T10:33:04;19.35;88.69
64198;SHT31;50512;53.666;9.700;2023-07-28T10:35:30;19.54;90.46
64198;SHT31;50512;53.666;9.700;2023-07-28T10:38:28;19.59;87.78
64198;SHT31;50512;53.666;9.700;2023-07-28T10:41:05;19.66;88.22
64198;SHT31;50512;53.666;9.700;2023-07-28T10:43:32;19.90;89.38
64198;SHT31;50512;53.666;9.700;2023-07-28T10:45:59;20.03;89.29
64198;SHT31;50512;53.666;9.700;2023-07-28T10:48:27;20.14;88.79
64198;SHT31;50512;53.666;9.700;2023-07-28T10:50:53;20.03;88.22
64198;SHT31;50512;53.666;9.700;2023-07-28T10:53:20;20.09;85.67
64198;SHT31;50512;53.666;9.700;2023-07-28T10:55:46;19.93;86.84
64198;SHT31;50512;53.666;9.700;2023-07-28T10:58:13;20.16;88.36
64198;SHT31;50512;53.666;9.700;2023-07-28T11:00:39;20.49;87.76
64198;SHT31;50512;53.666;9.700;2023-07-28T11:03:08;20.76;88.18
64198;SHT31;50512;53.666;9.700;2023-07-28T11:05:36;20.90;84.26
64198;SHT31;50512;53.666;9.700;2023-07-28T11:08:03;20.95;86.74
64198;SHT31;50512;53.666;9.700;2023-07-28T11:10:31;20.81;85.97
64198;SHT31;50512;53.666;9.700;2023-07-28T11:12:59;20.95;86.81
64198;SHT31;50512;53.666;9.700;2023-07-28T11:15:26;20.99;84.07
64198;SHT31;50512;53.666;9.700;2023-07-28T11:17:54;21.04;84.59
64198;SHT31;50512;53.666;9.700;2023-07-28T11:20:22;20.86;83.02
64198;SHT31;50512;53.666;9.700;2023-07-28T11:22:54;20.93;84.94
64198;SHT31;50512;53.666;9.700;2023-07-28T11:25:21;21.00;86.04
64198;SHT31;50512;53.666;9.700;2023-07-28T11:27:48;21.24;86.06
64198;SHT31;50512;53.666;9.700;2023-07-28T11:30:16;21.30;84.14
64198;SHT31;50512;53.666;9.700;2023-07-28T11:32:44;20.75;83.69
64198;SHT31;50512;53.666;9.700;2023-07-28T11:35:12;20.82;85.29
64198;SHT31;50512;53.666;9.700;2023-07-28T11:37:40;20.79;84.45
64198;SHT31;50512;53.666;9.700;2023-07-28T11:40:10;21.13;85.81
64198;SHT31;50512;53.666;9.700;2023-07-28T11:42:38;21.40;84.91
64198;SHT31;50512;53.666;9.700;2023-07-28T11:45:06;21.45;83.39
64198;SHT31;50512;53.666;9.700;2023-07-28T11:47:33;21.41;82.16
64198;SHT31;50512;53.666;9.700;2023-07-28T11:50:00;21.00;84.16
64198;SHT31;50512;53.666;9.700;2023-07-28T11:52:30;20.58;84.81
64198;SHT31;50512;53.666;9.700;2023-07-28T11:54:56;20.68;86.79
64198;SHT31;50512;53.666;9.700;2023-07-28T11:57:25;21.00;86.41
64198;SHT31;50512;53.666;9.700;2023-07-28T11:59:52;21.19;85.40
64198;SHT31;50512;53.666;9.700;2023-07-28T12:02:24;21.24;84.73
64198;SHT31;50512;53.666;9.700;2023-07-28T12:04:51;21.28;84.83
64198;SHT31;50512;53.666;9.700;2023-07-28T12:07:20;20.93;85.88
64198;SHT31;50512;53.666;9.700;2023-07-28T12:09:53;20.95;83.51
64198;SHT31;50512;53.666;9.700;2023-07-28T12:12:26;21.06;85.02
64198;SHT31;50512;53.666;9.700;2023-07-28T12:14:54;20.67;84.85
64198;SHT31;50512;53.666;9.700;2023-07-28T12:17:22;20.95;86.06
64198;SHT31;50512;53.666;9.700;2023-07-28T12:19:57;20.90;83.84
64198;SHT31;50512;53.666;9.700;2023-07-28T12:22:24;20.98;84.90
64198;SHT31;50512;53.666;9.700;2023-07-28T12:24:50;21.06;83.39
64198;SHT31;50512;53.666;9.700;2023-07-28T12:27:17;21.23;84.08
64198;SHT31;50512;53.666;9.700;2023-07-28T12:29:47;21.45;84.34
64198;SHT31;50512;53.666;9.700;2023-07-28T12:32:13;21.38;81.84
64198;SHT31;50512;53.666;9.700;2023-07-28T12:34:39;21.30;82.92
64198;SHT31;50512;53.666;9.700;2023-07-28T12:37:06;21.48;84.14
64198;SHT31;50512;53.666;9.700;2023-07-28T12:39:36;21.50;84.90
64198;SHT31;50512;53.666;9.700;2023-07-28T12:42:04;21.51;84.05
64198;SHT31;50512;53.666;9.700;2023-07-28T12:44:31;21.50;85.17
64198;SHT31;50512;53.666;9.700;2023-07-28T12:46:59;21.50;85.22
64198;SHT31;50512;53.666;9.700;2023-07-28T12:49:25;21.40;84.26
64198;SHT31;50512;53.666;9.700;2023-07-28T12:51:54;21.47;84.30
64198;SHT31;50512;53.666;9.700;2023-07-28T12:54:21;21.37;84.06
64198;SHT31;50512;53.666;9.700;2023-07-28T12:56:48;21.45;84.63
64198;SHT31;50512;53.666;9.700;2023-07-28T12:59:14;21.27;84.88
64198;SHT31;50512;53.666;9.700;2023-07-28T13:01:41;21.19;84.80
64198;SHT31;50512;53.666;9.700;2023-07-28T13:04:09;21.17;85.28
64198;SHT31;50512;53.666;9.700;2023-07-28T13:06:35;21.23;85.35
64198;SHT31;50512;53.666;9.700;2023-07-28T13:09:02;21.41;84.61
64198;SHT31;50512;53.666;9.700;2023-07-28T13:11:30;21.47;83.41
64198;SHT31;50512;53.666;9.700;2023-07-28T13:13:56;21.57;84.32
64198;SHT31;50512;53.666;9.700;2023-07-28T13:16:23;21.69;83.83
64198;SHT31;50512;53.666;9.700;2023-07-28T13:18:49;21.68;85.09
64198;SHT31;50512;53.666;9.700;2023-07-28T13:21:17;21.78;84.20
64198;SHT31;50512;53.666;9.700;2023-07-28T13:23:44;21.77;83.71
64198;SHT31;50512;53.666;9.700;2023-07-28T13:26:10;21.90;83.26
64198;SHT31;50512;53.666;9.700;2023-07-28T13:28:36;21.99;82.36
64198;SHT31;50512;53.666;9.700;2023-07-28T13:31:05;22.12;82.98
64198;SHT31;50512;53.666;9.700;2023-07-28T13:33:31;22.23;82.09
64198;SHT31;50512;53.666;9.700;2023-07-28T13:35:57;22.39;81.21
64198;SHT31;50512;53.666;9.700;2023-07-28T13:38:25;22.40;82.54
64198;SHT31;50512;53.666;9.700;2023-07-28T13:40:52;22.50;81.74
64198;SHT31;50512;53.666;9.700;2023-07-28T13:43:18;22.20;80.64
64198;SHT31;50512;53.666;9.700;2023-07-28T13:45:44;22.27;81.06
64198;SHT31;50512;53.666;9.700;2023-07-28T13:48:11;22.50;81.42
64198;SHT31;50512;53.666;9.700;2023-07-28T13:50:37;22.08;81.59
64198;SHT31;50512;53.666;9.700;2023-07-28T13:53:04;22.02;81.01
64198;SHT31;50512;53.666;9.700;2023-07-28T13:55:32;21.89;83.71
64198;SHT31;50512;53.666;9.700;2023-07-28T13:57:58;21.77;83.37
64198;SHT31;50512;53.666;9.700;2023-07-28T14:00:24;21.85;83.14
64198;SHT31;50512;53.666;9.700;2023-07-28T14:02:51;21.90;83.43
64198;SHT31;50512;53.666;9.700;2023-07-28T14:05:18;21.83;83.71
64198;SHT31;50512;53.666;9.700;2023-07-28T14:07:44;21.85;83.58
64198;SHT31;50512;53.666;9.700;2023-07-28T14:10:11;21.79;84.16
64198;SHT31;50512;53.666;9.700;2023-07-28T14:12:39;21.75;83.72
64198;SHT31;50512;53.666;9.700;2023-07-28T14:15:07;21.69;83.54
64198;SHT31;50512;53.666;9.700;2023-07-28T14:17:34;21.82;83.84
64198;SHT31;50512;53.666;9.700;2023-07-28T14:20:00;21.98;83.65
64198;SHT31;50512;53.666;9.700;2023-07-28T14:22:27;22.09;83.67
64198;SHT31;50512;53.666;9.700;2023-07-28T14:24:53;22.06;84.22
64198;SHT31;50512;53.666;9.700;2023-07-28T14:27:20;21.98;84.25
64198;SHT31;50512;53.666;9.700;2023-07-28T14:29:47;21.74;83.41
64198;SHT31;50512;53.666;9.700;2023-07-28T14:32:14;21.92;84.35
64198;SHT31;50512;53.666;9.700;2023-07-28T14:34:40;22.20;84.73
64198;SHT31;50512;53.666;9.700;2023-07-28T14:37:07;22.30;83.45
64198;SHT31;50512;53.666;9.700;2023-07-28T14:39:33;22.24;82.24
64198;SHT31;50512;53.666;9.700;2023-07-28T14:42:00;22.36;83.85
64198;SHT31;50512;53.666;9.700;2023-07-28T14:44:26;22.34;83.37
64198;SHT31;50512;53.666;9.700;2023-07-28T14:46:54;22.13;82.97
64198;SHT31;50512;53.666;9.700;2023-07-28T14:49:21;22.17;83.77
64198;SHT31;50512;53.666;9.700;2023-07-28T14:51:47;22.19;82.56
64198;SHT31;50512;53.666;9.700;2023-07-28T14:54:14;22.23;81.94
64198;SHT31;50512;53.666;9.700;2023-07-28T14:56:40;22.14;81.92
64198;SHT31;50512;53.666;9.700;2023-07-28T14:59:06;22.21;82.59
64198;SHT31;50512;53.666;9.700;2023-07-28T15:01:33;22.19;82.00
64198;SHT31;50512;53.666;9.700;2023-07-28T15:04:01;22.09;82.86
64198;SHT31;50512;53.666;9.700;2023-07-28T15:09:04;22.21;82.13
64198;SHT31;50512;53.666;9.700;2023-07-28T15:11:31;22.24;82.70
64198;SHT31;50512;53.666;9.700;2023-07-28T15:13:58;22.32;82.65
64198;SHT31;50512;53.666;9.700;2023-07-28T15:16:24;22.44;81.27
64198;SHT31;50512;53.666;9.700;2023-07-28T15:18:51;22.58;80.74
64198;SHT31;50512;53.666;9.700;2023-07-28T15:21:18;22.71;78.99
64198;SHT31;50512;53.666;9.700;2023-07-28T15:23:45;22.41;80.31
64198;SHT31;50512;53.666;9.700;2023-07-28T15:26:12;22.37;81.71
64198;SHT31;50512;53.666;9.700;2023-07-28T15:28:38;22.16;81.89
64198;SHT31;50512;53.666;9.700;2023-07-28T15:31:05;21.81;82.23
64198;SHT31;50512;53.666;9.700;2023-07-28T15:33:31;21.69;82.23